Time;durP1;ratioP1;P1;durP2;ratioP2;P2;SDS_P1;SDS_P2;PMS_P1;PMS_P2;Temp;Humidity;BMP_temperature;BMP_pressure;BME280_temperature;BME280_humidity;BME280_pressure;Samples;Min_cycle;Max_cycle;Signal;HPM_P1;HPM_P2
2022/02/28 00:02:07;;;;;;;12.05;6.70;;;0.20;99.90;;;;;;5094211;28;20055;-85
2022/02/28 00:04:33;;;;;;;10.18;6.10;;;0.20;99.90;;;;;;5094270;28;20024;-85
2022/02/28 00:06:58;;;;;;;14.15;7.28;;;0.20;99.90;;;;;;5094258;28;20080;-85
2022/02/28 00:09:24;;;;;;;19.98;9.00;;;0.20;99.90;;;;;;5094218;28;20024;-85
2022/02/28 00:11:50;;;;;;;18.98;8.65;;;0.20;99.90;;;;;;5095225;28;20124;-85
2022/02/28 00:14:16;;;;;;;15.32;7.38;;;0.10;99.90;;;;;;5095277;28;20461;-85
2022/02/28 00:16:42;;;;;;;14.52;7.90;;;0.10;99.90;;;;;;5095005;28;20047;-85
2022/02/28 00:19:07;;;;;;;12.70;7.60;;;0.10;99.90;;;;;;5093924;28;20109;-85
2022/02/28 00:21:33;;;;;;;17.23;9.07;;;0.00;99.90;;;;;;5093988;28;20058;-85
2022/02/28 00:23:59;;;;;;;10.10;6.28;;;0.00;99.90;;;;;;5093704;28;20024;-85
2022/02/28 00:26:26;;;;;;;11.18;6.85;;;0.00;99.90;;;;;;5093713;28;20050;-85
2022/02/28 00:28:51;;;;;;;14.10;6.10;;;0.00;99.90;;;;;;5094895;28;20023;-85
2022/02/28 00:31:20;;;;;;;12.07;6.55;;;0.00;99.90;;;;;;5093818;28;20024;-85
2022/02/28 00:33:46;;;;;;;9.55;6.00;;;-0.10;99.90;;;;;;5093604;28;20020;-85
2022/02/28 00:36:12;;;;;;;12.45;6.32;;;0.00;99.90;;;;;;5094903;28;20105;-85
2022/02/28 00:38:38;;;;;;;9.57;5.95;;;-0.10;99.90;;;;;;5093549;28;20047;-85
2022/02/28 00:41:03;;;;;;;13.23;6.57;;;-0.10;99.90;;;;;;5093666;28;20378;-85
2022/02/28 00:43:30;;;;;;;10.10;6.25;;;-0.10;99.90;;;;;;5093620;28;20048;-85
2022/02/28 00:45:56;;;;;;;10.35;5.75;;;-0.10;99.90;;;;;;5093288;28;20024;-84
2022/02/28 00:48:22;;;;;;;10.15;6.10;;;-0.10;99.90;;;;;;5093588;28;20038;-85
2022/02/28 00:50:48;;;;;;;10.45;6.55;;;-0.10;99.90;;;;;;5094521;28;20038;-85
2022/02/28 00:53:14;;;;;;;8.88;5.75;;;-0.10;99.90;;;;;;5093157;28;20061;-85
2022/02/28 00:55:40;;;;;;;12.45;7.13;;;-0.10;99.90;;;;;;5093316;28;20481;-85
2022/02/28 00:58:07;;;;;;;16.95;7.80;;;-0.10;99.90;;;;;;5094423;28;20016;-85
2022/02/28 01:00:35;;;;;;;10.07;5.88;;;-0.20;99.90;;;;;;5093314;28;20067;-85
2022/02/28 01:03:00;;;;;;;22.60;8.55;;;-0.10;99.90;;;;;;5094617;28;20016;-85
2022/02/28 01:05:26;;;;;;;18.77;9.18;;;-0.20;99.90;;;;;;5093110;28;20035;-85
2022/02/28 01:07:52;;;;;;;17.77;6.50;;;-0.20;99.90;;;;;;5093191;28;20394;-85
2022/02/28 01:10:20;;;;;;;14.38;7.25;;;-0.20;99.90;;;;;;5093321;28;20024;-85
2022/02/28 01:12:46;;;;;;;13.73;6.70;;;-0.20;99.90;;;;;;5093082;28;20120;-85
2022/02/28 01:15:13;;;;;;;10.82;6.53;;;-0.20;99.90;;;;;;5092833;28;20139;-85
2022/02/28 01:17:39;;;;;;;11.40;6.95;;;-0.20;99.90;;;;;;5092985;28;20367;-85
2022/02/28 01:20:06;;;;;;;25.63;9.88;;;-0.20;99.90;;;;;;5094253;28;20028;-85
2022/02/28 01:22:32;;;;;;;12.75;6.97;;;-0.30;99.90;;;;;;5094404;28;20044;-85
2022/02/28 01:24:58;;;;;;;14.18;7.35;;;-0.30;99.90;;;;;;5094213;28;20028;-85
2022/02/28 01:27:23;;;;;;;12.27;6.78;;;-0.30;99.90;;;;;;5094199;28;20099;-86
2022/02/28 01:29:49;;;;;;;12.25;6.22;;;-0.30;99.90;;;;;;5093375;28;20408;-85
2022/02/28 01:32:16;;;;;;;14.75;7.15;;;-0.30;99.90;;;;;;5094497;28;20101;-85
2022/02/28 01:34:41;;;;;;;11.40;6.40;;;-0.30;99.90;;;;;;5093179;28;20034;-85
2022/02/28 01:37:07;;;;;;;9.68;5.90;;;-0.40;99.90;;;;;;5094686;28;20024;-85
2022/02/28 01:39:33;;;;;;;9.77;6.13;;;-0.40;99.90;;;;;;5097066;28;20032;-85
2022/02/28 01:41:59;;;;;;;15.48;7.13;;;-0.40;99.90;;;;;;5097129;28;20116;-85
2022/02/28 01:44:25;;;;;;;13.25;6.88;;;-0.40;99.90;;;;;;5097079;28;20058;-85
2022/02/28 01:46:51;;;;;;;10.55;6.20;;;-0.40;99.90;;;;;;5098405;28;20024;-85
2022/02/28 01:49:17;;;;;;;12.07;6.28;;;-0.40;99.90;;;;;;5096711;28;20024;-84
2022/02/28 01:51:44;;;;;;;10.40;6.40;;;-0.40;99.90;;;;;;5097064;28;20466;-85
2022/02/28 01:54:10;;;;;;;10.45;6.50;;;-0.40;99.90;;;;;;5096919;28;20024;-85
2022/02/28 01:56:36;;;;;;;11.02;6.25;;;-0.40;99.90;;;;;;5098290;28;20039;-85
2022/02/28 01:59:02;;;;;;;17.35;6.72;;;-0.40;99.90;;;;;;5096904;28;20052;-85
2022/02/28 02:01:28;;;;;;;9.18;6.00;;;-0.50;99.90;;;;;;5096835;28;20016;-85
2022/02/28 02:03:54;;;;;;;10.07;6.32;;;-0.50;99.90;;;;;;5098257;28;20103;-85
2022/02/28 02:06:20;;;;;;;9.88;6.00;;;-0.50;99.90;;;;;;5096785;28;20114;-85
2022/02/28 02:08:46;;;;;;;10.40;6.47;;;-0.50;99.90;;;;;;5097838;28;20024;-85
2022/02/28 02:11:12;;;;;;;12.77;7.43;;;-0.50;99.90;;;;;;5096492;28;20024;-85
2022/02/28 02:13:38;;;;;;;13.50;8.38;;;-0.50;99.90;;;;;;5097779;28;20082;-85
2022/02/28 02:16:04;;;;;;;14.85;10.07;;;-0.50;99.90;;;;;;5096187;28;20070;-85
2022/02/28 02:18:30;;;;;;;18.70;9.13;;;-0.60;99.90;;;;;;5097770;28;20027;-85
2022/02/28 02:20:56;;;;;;;12.70;7.47;;;-0.60;99.90;;;;;;5096452;28;20067;-85
2022/02/28 02:23:22;;;;;;;24.67;13.88;;;-0.60;99.90;;;;;;5096377;28;20022;-85
2022/02/28 02:25:48;;;;;;;16.83;9.02;;;-0.60;99.90;;;;;;5096423;28;20028;-85
2022/02/28 02:28:16;;;;;;;11.18;7.13;;;-0.60;99.90;;;;;;5096563;28;20047;-85
2022/02/28 02:30:50;;;;;;;13.93;7.65;;;-0.60;99.90;;;;;;5097309;28;20028;-85
2022/02/28 02:33:16;;;;;;;10.98;7.03;;;-0.60;99.90;;;;;;5096269;28;20024;-85
2022/02/28 02:35:49;;;;;;;13.23;7.60;;;-0.60;99.90;;;;;;5095936;28;20035;-85
2022/02/28 02:38:15;;;;;;;17.92;8.45;;;-0.60;99.90;;;;;;5096156;28;20030;-85
2022/02/28 02:40:40;;;;;;;15.57;7.20;;;-0.60;99.90;;;;;;5096055;28;20023;-85
2022/02/28 02:43:06;;;;;;;22.67;9.18;;;-0.70;99.90;;;;;;5097398;28;20028;-87
2022/02/28 02:45:32;;;;;;;14.63;7.20;;;-0.70;99.90;;;;;;5097519;28;20035;-87
2022/02/28 02:47:57;;;;;;;22.63;9.20;;;-0.70;99.90;;;;;;5095674;28;20028;-87
2022/02/28 02:50:23;;;;;;;13.18;6.88;;;-0.70;99.90;;;;;;5097168;28;20031;-86
2022/02/28 02:52:49;;;;;;;12.68;6.80;;;-0.70;99.90;;;;;;5095779;28;20032;-87
2022/02/28 02:55:14;;;;;;;14.90;7.38;;;-0.70;99.90;;;;;;5095918;28;20026;-87
2022/02/28 02:57:40;;;;;;;13.70;7.05;;;-0.70;99.90;;;;;;5095873;28;20020;-87
2022/02/28 03:00:10;;;;;;;15.52;6.63;;;-0.70;99.90;;;;;;5095913;28;20027;-87
2022/02/28 03:02:36;;;;;;;13.95;7.13;;;-0.70;99.90;;;;;;5095865;28;20028;-87
2022/02/28 03:05:02;;;;;;;21.58;8.48;;;-0.70;99.90;;;;;;5096807;28;20031;-87
2022/02/28 03:07:28;;;;;;;16.27;6.15;;;-0.70;99.90;;;;;;5096808;28;20107;-87
2022/02/28 03:09:54;;;;;;;9.20;5.60;;;-0.70;99.90;;;;;;5095743;28;20161;-88
2022/02/28 03:12:20;;;;;;;7.15;5.32;;;-0.70;99.90;;;;;;5095689;28;20031;-87
2022/02/28 03:14:45;;;;;;;8.55;5.10;;;-0.60;99.90;;;;;;5096352;28;20048;-87
2022/02/28 03:17:11;;;;;;;8.27;5.13;;;-0.60;99.90;;;;;;5095465;28;20416;-87
2022/02/28 03:19:37;;;;;;;10.40;5.60;;;-0.60;99.90;;;;;;5096533;28;20091;-87
2022/02/28 03:22:02;;;;;;;15.80;7.15;;;-0.60;99.90;;;;;;5095471;28;20028;-87
2022/02/28 03:24:28;;;;;;;14.73;7.03;;;-0.60;99.90;;;;;;5096723;28;20021;-87
2022/02/28 03:26:54;;;;;;;15.93;7.40;;;-0.60;99.90;;;;;;5095304;28;20081;-86
2022/02/28 03:29:19;;;;;;;12.43;5.80;;;-0.70;99.90;;;;;;5095245;28;20030;-87
2022/02/28 03:31:45;;;;;;;12.82;6.88;;;-0.70;99.90;;;;;;5095003;28;20020;-87
2022/02/28 03:34:11;;;;;;;15.35;7.57;;;-0.70;99.90;;;;;;5095044;28;20032;-87
2022/02/28 03:36:36;;;;;;;16.90;7.30;;;-0.70;99.90;;;;;;5095112;28;20076;-86
2022/02/28 03:39:02;;;;;;;10.20;5.63;;;-0.80;99.90;;;;;;5094999;28;20111;-87
2022/02/28 03:41:28;;;;;;;15.68;6.20;;;-0.70;99.90;;;;;;5094863;28;20095;-87
2022/02/28 03:43:53;;;;;;;14.80;6.10;;;-0.80;99.90;;;;;;5096092;28;20020;-87
2022/02/28 03:46:19;;;;;;;10.30;5.60;;;-0.80;99.90;;;;;;5095980;28;20020;-87
2022/02/28 03:48:45;;;;;;;15.07;6.00;;;-0.80;99.90;;;;;;5095188;28;20028;-87
2022/02/28 03:51:11;;;;;;;10.45;5.30;;;-0.80;99.90;;;;;;5095990;28;20032;-87
2022/02/28 03:53:36;;;;;;;12.93;5.78;;;-0.80;99.90;;;;;;5094612;28;20111;-87
2022/02/28 03:56:02;;;;;;;14.00;6.38;;;-0.80;99.90;;;;;;5094488;28;20092;-87
2022/02/28 03:58:28;;;;;;;10.25;5.25;;;-0.80;99.90;;;;;;5094775;28;20355;-87
2022/02/28 04:00:53;;;;;;;11.90;6.22;;;-0.80;99.90;;;;;;5094955;28;20047;-87
2022/02/28 04:03:19;;;;;;;12.38;5.75;;;-0.90;99.90;;;;;;5094693;28;20020;-87
2022/02/28 04:05:45;;;;;;;16.80;8.10;;;-0.90;99.90;;;;;;5094585;28;20020;-87
2022/02/28 04:08:10;;;;;;;10.55;5.60;;;-0.90;99.90;;;;;;5094610;28;20123;-86
2022/02/28 04:10:36;;;;;;;10.07;5.85;;;-0.90;99.90;;;;;;5094371;28;20360;-86
2022/02/28 04:13:02;;;;;;;10.63;6.15;;;-0.90;99.90;;;;;;5094472;28;20035;-86
2022/02/28 04:15:27;;;;;;;10.40;5.40;;;-1.00;99.90;;;;;;5095243;28;20051;-87
2022/02/28 04:17:53;;;;;;;11.10;5.97;;;-1.00;99.90;;;;;;5095520;28;20016;-87
2022/02/28 04:20:19;;;;;;;12.73;6.63;;;-1.00;99.90;;;;;;5095547;28;20028;-87
2022/02/28 04:22:44;;;;;;;15.00;6.53;;;-1.00;99.90;;;;;;5094273;28;20470;-87
2022/02/28 04:25:10;;;;;;;19.10;9.00;;;-1.10;99.90;;;;;;5095649;28;20470;-87
2022/02/28 04:27:36;;;;;;;34.40;18.10;;;-1.10;99.90;;;;;;5094105;28;20060;-87
2022/02/28 04:30:03;;;;;;;18.55;8.30;;;-1.00;99.90;;;;;;5094379;28;20032;-87
2022/02/28 04:32:29;;;;;;;25.88;8.57;;;-1.10;99.90;;;;;;5094584;28;20028;-89
2022/02/28 04:34:55;;;;;;;14.27;6.50;;;-1.00;99.90;;;;;;5095096;28;20081;-90
2022/02/28 04:37:21;;;;;;;20.17;7.78;;;-1.10;99.90;;;;;;5094948;28;20031;-89
2022/02/28 04:39:47;;;;;;;12.27;5.47;;;-1.00;99.90;;;;;;5094029;28;20051;-88
2022/02/28 04:42:12;;;;;;;13.35;5.65;;;-1.10;99.90;;;;;;5094977;28;20017;-87
2022/02/28 04:44:38;;;;;;;14.02;5.97;;;-1.00;99.90;;;;;;5094992;28;20050;-88
2022/02/28 04:47:04;;;;;;;10.45;5.60;;;-1.10;99.90;;;;;;5093890;28;20076;-87
2022/02/28 04:49:30;;;;;;;12.70;5.90;;;-1.10;99.90;;;;;;5093951;28;20031;-88
2022/02/28 04:51:55;;;;;;;16.00;6.57;;;-1.10;99.90;;;;;;5095839;28;20035;-88
2022/02/28 04:54:21;;;;;;;11.02;6.20;;;-1.10;99.90;;;;;;5093440;28;20024;-88
2022/02/28 04:56:46;;;;;;;11.50;6.40;;;-1.10;99.90;;;;;;5093793;28;20024;-88
2022/02/28 04:59:12;;;;;;;10.25;6.07;;;-1.10;99.90;;;;;;5093677;28;20020;-88
2022/02/28 05:01:38;;;;;;;11.73;6.28;;;-1.10;99.90;;;;;;5093794;28;20024;-88
2022/02/28 05:04:03;;;;;;;10.80;6.35;;;-1.10;99.90;;;;;;5093504;28;20028;-88
2022/02/28 05:06:29;;;;;;;11.73;6.32;;;-1.10;99.90;;;;;;5093676;28;20097;-88
2022/02/28 05:08:55;;;;;;;10.30;6.65;;;-1.10;99.90;;;;;;5093665;28;20107;-88
2022/02/28 05:11:20;;;;;;;12.55;6.47;;;-1.10;99.90;;;;;;5094767;28;20028;-85
2022/02/28 05:13:46;;;;;;;10.10;6.38;;;-1.10;99.90;;;;;;5094745;28;20073;-85
2022/02/28 05:16:11;;;;;;;13.60;7.70;;;-1.10;99.90;;;;;;5093028;28;20058;-85
2022/02/28 05:18:37;;;;;;;18.67;7.65;;;-1.00;99.90;;;;;;5094639;28;20027;-85
2022/02/28 05:21:03;;;;;;;18.00;7.80;;;-1.10;99.90;;;;;;5094390;28;20107;-85
2022/02/28 05:23:29;;;;;;;16.48;7.95;;;-1.10;99.90;;;;;;5093314;28;20032;-85
2022/02/28 05:25:54;;;;;;;14.52;8.07;;;-1.00;99.90;;;;;;5094793;28;20047;-86
2022/02/28 05:28:20;;;;;;;14.45;7.90;;;-1.00;99.90;;;;;;5094620;28;20081;-86
2022/02/28 05:30:47;;;;;;;13.77;7.85;;;-1.00;99.90;;;;;;5093315;28;20038;-87
2022/02/28 05:33:16;;;;;;;16.23;8.48;;;-1.00;99.90;;;;;;5092288;28;20028;-87
2022/02/28 05:35:42;;;;;;;16.05;8.60;;;-1.00;99.90;;;;;;5091924;28;20029;-88
2022/02/28 05:38:09;;;;;;;15.05;8.20;;;-0.90;99.90;;;;;;5091925;28;20051;-87
2022/02/28 05:40:36;;;;;;;13.23;8.20;;;-0.90;99.90;;;;;;5091401;28;20043;-87
2022/02/28 05:43:02;;;;;;;14.70;8.25;;;-0.90;99.90;;;;;;5091317;28;20024;-86
2022/02/28 05:45:28;;;;;;;11.15;7.45;;;-0.90;99.90;;;;;;5091962;28;20119;-86
2022/02/28 05:47:54;;;;;;;14.85;8.18;;;-0.90;99.90;;;;;;5092843;28;20034;-87
2022/02/28 05:50:19;;;;;;;14.50;8.15;;;-0.90;99.90;;;;;;5093347;28;20024;-86
2022/02/28 05:52:49;;;;;;;13.27;7.93;;;-0.90;99.90;;;;;;5092849;28;20089;-87
2022/02/28 05:55:14;;;;;;;17.10;8.18;;;-0.80;99.90;;;;;;5093125;28;20031;-86
2022/02/28 05:57:40;;;;;;;12.27;7.65;;;-0.80;99.90;;;;;;5094189;28;20020;-87
2022/02/28 06:00:07;;;;;;;18.48;9.30;;;-0.70;99.90;;;;;;5093021;28;20032;-87
2022/02/28 06:02:33;;;;;;;14.13;8.30;;;-0.70;99.90;;;;;;5092954;28;20024;-87
2022/02/28 06:04:59;;;;;;;16.63;8.13;;;-0.70;99.90;;;;;;5092913;28;20493;-87
2022/02/28 06:07:25;;;;;;;15.82;9.85;;;-0.70;99.90;;;;;;5092943;28;20020;-87
2022/02/28 06:09:50;;;;;;;14.05;7.78;;;-0.60;99.90;;;;;;5091190;28;20378;-87
2022/02/28 06:12:16;;;;;;;11.45;7.38;;;-0.60;99.90;;;;;;5098644;28;20016;-87
2022/02/28 06:14:42;;;;;;;14.43;7.43;;;-0.50;99.90;;;;;;5092642;28;20052;-86
2022/02/28 06:17:08;;;;;;;15.43;7.70;;;-0.50;99.90;;;;;;5093792;28;20027;-87
2022/02/28 06:19:34;;;;;;;13.43;7.47;;;-0.50;99.90;;;;;;5094583;28;20047;-87
2022/02/28 06:21:59;;;;;;;11.75;6.88;;;-0.40;99.90;;;;;;5096361;28;20024;-87
2022/02/28 06:24:25;;;;;;;11.43;7.07;;;-0.40;99.90;;;;;;5096842;28;20393;-86
2022/02/28 06:26:52;;;;;;;13.13;7.00;;;-0.40;99.90;;;;;;5099563;28;20024;-86
2022/02/28 06:29:18;;;;;;;12.10;6.97;;;-0.30;99.90;;;;;;5096605;28;20020;-86
2022/02/28 06:31:44;;;;;;;11.20;6.68;;;-0.20;99.90;;;;;;5096469;28;20466;-86
2022/02/28 06:34:13;;;;;;;13.13;6.85;;;-0.20;99.90;;;;;;5097702;28;20405;-87
2022/02/28 06:36:40;;;;;;;10.45;6.90;;;-0.20;99.90;;;;;;5096129;28;20114;-86
2022/02/28 06:39:07;;;;;;;12.48;7.10;;;-0.20;99.90;;;;;;5096015;28;20024;-86
2022/02/28 06:41:33;;;;;;;10.55;6.00;;;-0.20;99.90;;;;;;5095956;28;20379;-87
2022/02/28 06:43:58;;;;;;;11.52;6.85;;;-0.10;99.90;;;;;;5096060;28;20028;-86
2022/02/28 06:46:24;;;;;;;9.88;6.38;;;-0.20;99.90;;;;;;5097580;28;20028;-87
2022/02/28 06:48:50;;;;;;;13.07;6.25;;;-0.10;99.90;;;;;;5096053;28;20020;-87
2022/02/28 06:51:16;;;;;;;12.18;7.07;;;-0.10;99.90;;;;;;5096016;28;20028;-87
2022/02/28 06:53:42;;;;;;;15.30;6.60;;;-0.10;99.90;;;;;;5095911;28;20068;-86
2022/02/28 06:56:08;;;;;;;12.75;7.20;;;-0.10;99.90;;;;;;5095854;28;20509;-87
2022/02/28 06:58:35;;;;;;;11.57;6.80;;;0.00;99.90;;;;;;5095795;28;20020;-86
2022/02/28 07:01:01;;;;;;;13.13;6.82;;;0.00;99.90;;;;;;5095843;28;20481;-87
2022/02/28 07:03:27;;;;;;;12.63;7.03;;;0.00;99.90;;;;;;5095691;28;20024;-87
2022/02/28 07:05:55;;;;;;;11.05;7.35;;;0.00;99.90;;;;;;5096801;28;20522;-86
2022/02/28 07:08:21;;;;;;;14.40;7.93;;;0.00;99.90;;;;;;5096715;28;20070;-86
2022/02/28 07:10:48;;;;;;;13.48;6.90;;;0.00;99.90;;;;;;5096648;28;20027;-86
2022/02/28 07:13:14;;;;;;;11.68;6.80;;;0.00;99.90;;;;;;5096482;28;20466;-87
2022/02/28 07:15:41;;;;;;;21.30;10.30;;;0.10;99.90;;;;;;5095019;28;20051;-86
2022/02/28 07:18:07;;;;;;;17.13;7.95;;;0.10;99.90;;;;;;5095269;28;20383;-87
2022/02/28 07:20:33;;;;;;;20.63;9.63;;;0.20;99.90;;;;;;5096451;28;20047;-87
2022/02/28 07:22:59;;;;;;;14.30;8.43;;;0.20;99.90;;;;;;5095145;28;20474;-87
2022/02/28 07:25:25;;;;;;;13.10;7.80;;;0.30;99.90;;;;;;5095202;28;20035;-86
2022/02/28 07:27:51;;;;;;;12.57;7.22;;;0.30;99.90;;;;;;5094960;28;20083;-86
2022/02/28 07:30:16;;;;;;;9.90;6.30;;;0.30;99.90;;;;;;5095103;28;20031;-87
2022/02/28 07:32:43;;;;;;;10.43;6.60;;;0.30;99.90;;;;;;5095076;28;20030;-86
2022/02/28 07:35:09;;;;;;;11.05;6.53;;;0.30;99.90;;;;;;5094932;28;20031;-87
2022/02/28 07:37:35;;;;;;;9.80;5.85;;;0.30;99.90;;;;;;5095992;28;20042;-87
2022/02/28 07:40:05;;;;;;;11.52;6.10;;;0.30;99.90;;;;;;5094814;28;20020;-86
2022/02/28 07:42:31;;;;;;;11.68;6.68;;;0.40;99.90;;;;;;5094760;28;20069;-86
2022/02/28 07:44:57;;;;;;;12.95;6.00;;;0.40;99.90;;;;;;5094783;28;20036;-87
2022/02/28 07:47:22;;;;;;;9.18;6.32;;;0.50;99.90;;;;;;5094692;28;20023;-86
2022/02/28 07:49:49;;;;;;;10.82;5.75;;;0.50;99.90;;;;;;5094712;28;20051;-87
2022/02/28 07:52:15;;;;;;;10.85;6.30;;;0.50;99.90;;;;;;5096232;28;20085;-86
2022/02/28 07:54:40;;;;;;;10.50;6.28;;;0.60;99.90;;;;;;5094421;28;20024;-87
2022/02/28 07:57:06;;;;;;;11.23;7.07;;;0.60;99.90;;;;;;5095699;28;20072;-87
2022/02/28 07:59:32;;;;;;;12.73;6.55;;;0.60;99.90;;;;;;5094474;28;20054;-88
2022/02/28 08:01:57;;;;;;;11.63;6.63;;;0.70;99.90;;;;;;5095881;28;20031;-86
2022/02/28 08:04:23;;;;;;;9.73;6.10;;;0.70;99.90;;;;;;5095620;28;20020;-89
2022/02/28 08:06:48;;;;;;;9.27;5.35;;;0.80;99.90;;;;;;5094418;28;20066;-87
2022/02/28 08:09:16;;;;;;;10.57;5.63;;;0.80;99.90;;;;;;5094295;28;20470;-86
2022/02/28 08:11:42;;;;;;;11.48;5.20;;;0.80;99.90;;;;;;5094345;28;20035;-86
2022/02/28 08:14:08;;;;;;;9.55;5.28;;;0.80;99.90;;;;;;5094336;28;20383;-86
2022/02/28 08:16:34;;;;;;;7.88;5.10;;;0.90;99.90;;;;;;5093844;28;20052;-86
2022/02/28 08:18:59;;;;;;;7.93;4.80;;;1.00;99.90;;;;;;5095361;28;20031;-85
2022/02/28 08:21:25;;;;;;;9.20;5.75;;;1.00;99.90;;;;;;5094083;28;20024;-87
2022/02/28 08:23:51;;;;;;;9.10;5.20;;;1.00;99.90;;;;;;5095328;28;20051;-87
2022/02/28 08:26:16;;;;;;;8.00;5.25;;;1.10;99.90;;;;;;5094007;28;20024;-87
2022/02/28 08:28:42;;;;;;;9.88;5.15;;;1.20;99.90;;;;;;5094964;28;20024;-86
2022/02/28 08:31:08;;;;;;;10.68;5.78;;;1.20;99.90;;;;;;5093456;28;20032;-85
2022/02/28 08:33:33;;;;;;;8.18;5.97;;;1.20;99.80;;;;;;5094959;28;20035;-86
2022/02/28 08:35:59;;;;;;;6.47;4.50;;;1.30;99.90;;;;;;5094906;28;20066;-85
2022/02/28 08:38:25;;;;;;;10.48;4.75;;;1.30;99.60;;;;;;5093683;28;20467;-85
2022/02/28 08:40:50;;;;;;;9.13;4.75;;;1.30;99.70;;;;;;5094988;28;20447;-85
2022/02/28 08:43:16;;;;;;;8.15;4.45;;;1.40;99.60;;;;;;5093561;28;20027;-86
2022/02/28 08:45:42;;;;;;;7.65;4.93;;;1.40;99.40;;;;;;5094275;28;20149;-85
2022/02/28 08:48:07;;;;;;;7.57;4.32;;;1.50;99.20;;;;;;5094694;28;20027;-85
2022/02/28 08:50:33;;;;;;;8.02;4.28;;;1.50;99.10;;;;;;5093549;28;20024;-86
2022/02/28 08:52:59;;;;;;;6.00;4.22;;;1.60;98.70;;;;;;5093288;28;20553;-87
2022/02/28 08:55:25;;;;;;;9.07;5.07;;;1.60;98.50;;;;;;5094936;28;20031;-86
2022/02/28 08:57:51;;;;;;;8.25;4.35;;;1.60;98.60;;;;;;5093437;28;20016;-87
2022/02/28 09:00:17;;;;;;;8.80;5.03;;;1.60;98.30;;;;;;5093507;28;20024;-86
2022/02/28 09:02:43;;;;;;;8.23;4.22;;;1.60;98.40;;;;;;5093478;28;20538;-85
2022/02/28 09:05:09;;;;;;;7.53;4.22;;;1.70;98.10;;;;;;5093469;28;20020;-85
2022/02/28 09:07:35;;;;;;;7.07;4.50;;;1.70;97.80;;;;;;5093250;28;20035;-86
2022/02/28 09:10:02;;;;;;;8.65;4.95;;;1.80;98.10;;;;;;5094364;28;20023;-85
2022/02/28 09:12:28;;;;;;;6.45;3.85;;;1.80;98.40;;;;;;5093201;28;20044;-86
2022/02/28 09:14:53;;;;;;;8.20;4.82;;;1.80;98.10;;;;;;5093140;28;20047;-86
2022/02/28 09:17:19;;;;;;;8.65;5.15;;;1.90;98.10;;;;;;5094464;28;20084;-86
2022/02/28 09:19:45;;;;;;;12.90;4.95;;;1.90;98.10;;;;;;5093212;28;20405;-86
2022/02/28 09:22:11;;;;;;;24.70;7.75;;;1.90;97.80;;;;;;5093908;28;20024;-85
2022/02/28 09:24:36;;;;;;;10.98;6.00;;;2.00;97.40;;;;;;5093295;28;20020;-86
2022/02/28 09:27:04;;;;;;;9.68;4.80;;;2.00;97.10;;;;;;5093158;28;20093;-86
2022/02/28 09:29:30;;;;;;;8.60;5.00;;;1.90;96.90;;;;;;5094128;28;20378;-85
2022/02/28 09:31:57;;;;;;;12.52;6.10;;;1.90;97.10;;;;;;5093595;28;20062;-86
2022/02/28 09:34:22;;;;;;;11.18;6.07;;;2.00;97.00;;;;;;5092984;28;20024;-85
2022/02/28 09:36:51;;;;;;;11.75;5.95;;;2.00;97.00;;;;;;5092739;28;20424;-86
2022/02/28 09:39:17;;;;;;;11.00;6.15;;;2.00;96.80;;;;;;5094277;28;20118;-86
2022/02/28 09:41:43;;;;;;;9.15;5.13;;;2.00;96.70;;;;;;5094186;28;20020;-87
2022/02/28 09:44:11;;;;;;;9.98;5.10;;;2.00;96.70;;;;;;5092721;28;20031;-86
2022/02/28 09:46:38;;;;;;;12.50;6.28;;;2.00;96.90;;;;;;5094045;28;20020;-87
2022/02/28 09:49:04;;;;;;;10.20;4.40;;;2.10;96.30;;;;;;5093058;28;20032;-87
2022/02/28 09:51:29;;;;;;;9.75;5.88;;;2.00;96.30;;;;;;5092876;28;20031;-86
2022/02/28 09:53:55;;;;;;;9.65;5.05;;;2.10;96.80;;;;;;5092821;28;20035;-87
2022/02/28 09:56:24;;;;;;;11.00;5.47;;;2.10;96.20;;;;;;5094037;28;20103;-86
2022/02/28 09:58:50;;;;;;;7.95;4.55;;;2.10;96.00;;;;;;5095476;28;20058;-86
2022/02/28 10:01:16;;;;;;;11.70;4.55;;;2.20;95.70;;;;;;5096833;28;20059;-86
2022/02/28 10:03:42;;;;;;;9.77;4.70;;;2.20;95.30;;;;;;5096271;28;20020;-85
2022/02/28 10:06:08;;;;;;;8.30;4.20;;;2.20;95.50;;;;;;5098087;28;20103;-87
2022/02/28 10:08:43;;;;;;;8.73;4.10;;;2.20;95.30;;;;;;5096695;28;20024;-89
2022/02/28 10:11:39;;;;;;;23.98;9.25;;;2.30;95.50;;;;;;5097702;28;20500;-86
2022/02/28 10:14:07;;;;;;;6.97;4.07;;;2.30;95.10;;;;;;5093794;28;20115;-85
2022/02/28 10:16:44;;;;;;;7.97;4.03;;;2.30;94.90;;;;;;5096186;28;20502;-87
2022/02/28 10:19:29;;;;;;;10.75;6.32;;;2.30;94.30;;;;;;5096466;28;20032;-86
2022/02/28 10:22:05;;;;;;;8.05;4.35;;;2.30;95.00;;;;;;5097679;28;20416;-90
2022/02/28 10:24:33;;;;;;;10.85;4.57;;;2.40;94.50;;;;;;5097580;28;20021;-87
2022/02/28 10:26:59;;;;;;;8.00;4.57;;;2.40;94.30;;;;;;5096482;28;20115;-88
2022/02/28 10:29:27;;;;;;;16.08;6.63;;;2.30;94.90;;;;;;5097417;28;20464;-86
2022/02/28 10:31:59;;;;;;;10.65;4.80;;;2.30;94.70;;;;;;5095901;28;20124;-87
2022/02/28 10:34:27;;;;;;;9.57;5.32;;;2.40;94.30;;;;;;5096810;28;20024;-88
2022/02/28 10:36:58;;;;;;;11.13;5.35;;;2.40;94.60;;;;;;5097260;28;20027;-86
2022/02/28 10:39:34;;;;;;;10.98;5.65;;;2.40;94.80;;;;;;5095841;28;20425;-87
2022/02/28 10:42:08;;;;;;;14.93;7.60;;;2.40;94.10;;;;;;5095902;28;20463;-87
2022/02/28 10:44:34;;;;;;;25.30;15.07;;;2.50;94.10;;;;;;5095947;28;20016;-85
2022/02/28 10:47:06;;;;;;;9.50;4.40;;;2.50;94.20;;;;;;5095774;28;20024;-86
2022/02/28 10:49:33;;;;;;;7.43;4.35;;;2.60;93.90;;;;;;5095200;28;20028;-85
2022/02/28 10:52:08;;;;;;;9.23;4.90;;;2.60;94.00;;;;;;5095573;28;20081;-86
2022/02/28 10:54:42;;;;;;;10.75;5.95;;;2.70;94.10;;;;;;5095672;28;20396;-85
2022/02/28 10:57:09;;;;;;;9.15;4.75;;;2.70;94.20;;;;;;5095592;28;20077;-85
2022/02/28 10:59:51;;;;;;;8.73;4.40;;;2.70;94.10;;;;;;5096644;28;20024;-85
2022/02/28 11:02:24;;;;;;;8.35;4.10;;;2.70;94.00;;;;;;5095377;28;20085;-86
2022/02/28 11:05:03;;;;;;;10.45;5.35;;;2.80;94.10;;;;;;5095361;28;20048;-85
2022/02/28 11:07:28;;;;;;;17.10;7.88;;;2.80;94.10;;;;;;5095420;28;20024;-85
2022/02/28 11:09:54;;;;;;;6.55;3.55;;;2.80;93.70;;;;;;5095547;28;20042;-86
2022/02/28 11:12:21;;;;;;;6.82;4.05;;;2.90;93.50;;;;;;5096747;28;20028;-86
2022/02/28 11:14:48;;;;;;;7.40;4.38;;;2.90;93.70;;;;;;5095014;28;20135;-86
2022/02/28 11:17:19;;;;;;;7.70;4.18;;;2.90;92.90;;;;;;5095306;28;20020;-87
2022/02/28 11:19:50;;;;;;;10.88;3.95;;;2.90;92.50;;;;;;5096344;28;20024;-87
2022/02/28 11:22:16;;;;;;;;;;;2.90;92.50;;;;;;5095573;28;20051;-87
2022/02/28 11:24:43;;;;;;;9.75;4.72;;;2.90;92.20;;;;;;5096182;28;19904;-87
2022/02/28 11:27:09;;;;;;;7.70;4.20;;;3.00;92.40;;;;;;5095148;28;20028;-88
2022/02/28 11:29:34;;;;;;;7.38;4.30;;;3.00;92.50;;;;;;5094992;28;20030;-87
2022/02/28 11:32:01;;;;;;;15.27;6.05;;;3.00;92.30;;;;;;5096114;28;20107;-87
2022/02/28 11:34:26;;;;;;;19.38;5.70;;;3.00;92.00;;;;;;5096034;28;20054;-87
2022/02/28 11:37:01;;;;;;;7.38;4.10;;;3.10;91.50;;;;;;5094768;28;20056;-87
2022/02/28 11:39:32;;;;;;;7.20;4.63;;;3.20;91.50;;;;;;5095943;28;20024;-87
2022/02/28 11:41:59;;;;;;;9.85;5.40;;;3.20;91.90;;;;;;5094762;28;20489;-86
2022/02/28 11:44:26;;;;;;;6.72;4.55;;;3.20;91.60;;;;;;5094665;28;20092;-88
2022/02/28 11:47:00;;;;;;;11.60;6.03;;;3.30;90.70;;;;;;5094782;28;20113;-88
2022/02/28 11:49:37;;;;;;;14.80;7.35;;;3.30;91.20;;;;;;5094670;28;20024;-87
2022/02/28 11:52:30;;;;;;;16.30;7.97;;;3.30;91.70;;;;;;5094598;28;20020;-88
2022/02/28 11:55:09;;;;;;;11.68;6.35;;;3.40;91.40;;;;;;5094674;28;20024;-86
2022/02/28 11:58:15;;;;;;;26.85;12.38;;;3.40;91.20;;;;;;5094558;28;20154;-87
2022/02/28 12:00:46;;;;;;;9.10;4.82;;;3.40;90.00;;;;;;5055448;28;20028;-87
2022/02/28 12:03:21;;;;;;;17.88;9.52;;;3.40;88.60;;;;;;5095783;28;20023;-85
2022/02/28 12:05:47;;;;;;;6.75;3.53;;;3.40;88.90;;;;;;5095463;28;20024;-86
2022/02/28 12:08:17;;;;;;;10.77;5.75;;;3.40;88.00;;;;;;5094228;28;20478;-87
2022/02/28 12:10:58;;;;;;;7.28;4.13;;;3.40;88.70;;;;;;5094065;28;20052;-85
2022/02/28 12:13:36;;;;;;;13.05;4.68;;;3.50;88.20;;;;;;5094432;28;20355;-87
2022/02/28 12:17:31;;;;;;;8.30;3.70;;;3.50;85.00;;;;;;5093641;28;20101;-87
2022/02/28 12:19:13;;;;;;;4.88;3.00;;;3.50;84.60;;;;;;5095091;28;20070;-86
2022/02/28 12:21:39;;;;;;;6.63;3.20;;;3.60;85.30;;;;;;5093437;28;20020;-88
2022/02/28 12:24:05;;;;;;;10.10;3.95;;;3.60;84.70;;;;;;5095079;28;20038;-88
2022/02/28 12:26:30;;;;;;;9.55;3.95;;;3.60;85.40;;;;;;5094078;28;20111;-88
2022/02/28 12:28:56;;;;;;;7.43;3.72;;;3.70;86.70;;;;;;5093998;28;20024;-87
2022/02/28 12:31:48;;;;;;;6.65;3.55;;;3.70;85.90;;;;;;5095207;28;20027;-88
2022/02/28 12:34:14;;;;;;;8.30;4.30;;;3.70;87.10;;;;;;5091310;28;20066;-88
2022/02/28 12:36:44;;;;;;;6.50;3.85;;;3.70;87.80;;;;;;5093820;28;20063;-87
2022/02/28 12:39:13;;;;;;;7.43;3.92;;;3.70;88.60;;;;;;5093814;28;20446;-88
2022/02/28 12:41:45;;;;;;;8.35;3.92;;;3.80;87.40;;;;;;5093755;28;20381;-88
2022/02/28 12:44:14;;;;;;;6.03;3.22;;;3.80;87.20;;;;;;5093762;28;20100;-88
2022/02/28 12:46:52;;;;;;;9.00;3.42;;;3.90;85.00;;;;;;5093659;28;20024;-89